sensor_id;sensor_type;location;lat;lon;timestamp;P1;durP1;ratioP1;P2;durP2;ratioP2
7545;SDS011;3814;51.454;12.616;2023-02-28T00:00:16;5.63;;;1.70;;
7545;SDS011;3814;51.454;12.616;2023-02-28T00:02:42;3.92;;;1.38;;
7545;SDS011;3814;51.454;12.616;2023-02-28T00:05:08;3.80;;;1.42;;
7545;SDS011;3814;51.454;12.616;2023-02-28T00:07:35;5.32;;;2.10;;
7545;SDS011;3814;51.454;12.616;2023-02-28T00:10:00;2.80;;;1.67;;
7545;SDS011;3814;51.454;12.616;2023-02-28T00:12:26;3.90;;;1.90;;
7545;SDS011;3814;51.454;12.616;2023-02-28T00:14:51;7.93;;;2.30;;
7545;SDS011;3814;51.454;12.616;2023-02-28T00:17:17;4.07;;;1.90;;
7545;SDS011;3814;51.454;12.616;2023-02-28T00:19:50;4.70;;;1.65;;
7545;SDS011;3814;51.454;12.616;2023-02-28T00:22:16;3.67;;;1.52;;
7545;SDS011;3814;51.454;12.616;2023-02-28T00:24:42;4.20;;;2.10;;
7545;SDS011;3814;51.454;12.616;2023-02-28T00:27:08;6.95;;;2.50;;
7545;SDS011;3814;51.454;12.616;2023-02-28T00:29:33;4.68;;;2.10;;
7545;SDS011;3814;51.454;12.616;2023-02-28T00:31:58;4.80;;;1.92;;
7545;SDS011;3814;51.454;12.616;2023-02-28T00:34:24;5.20;;;2.13;;
7545;SDS011;3814;51.454;12.616;2023-02-28T00:36:49;6.40;;;2.60;;
7545;SDS011;3814;51.454;12.616;2023-02-28T00:39:14;5.03;;;2.28;;
7545;SDS011;3814;51.454;12.616;2023-02-28T00:41:40;9.65;;;2.25;;
7545;SDS011;3814;51.454;12.616;2023-02-28T00:44:05;5.20;;;2.03;;
7545;SDS011;3814;51.454;12.616;2023-02-28T00:46:31;5.75;;;2.00;;
7545;SDS011;3814;51.454;12.616;2023-02-28T00:48:56;5.65;;;2.20;;
7545;SDS011;3814;51.454;12.616;2023-02-28T00:51:21;3.83;;;2.00;;
7545;SDS011;3814;51.454;12.616;2023-02-28T00:53:47;5.65;;;2.00;;
7545;SDS011;3814;51.454;12.616;2023-02-28T00:56:12;5.03;;;2.30;;
7545;SDS011;3814;51.454;12.616;2023-02-28T00:58:38;6.13;;;2.40;;
7545;SDS011;3814;51.454;12.616;2023-02-28T01:01:03;6.22;;;2.63;;
7545;SDS011;3814;51.454;12.616;2023-02-28T01:03:29;6.43;;;2.50;;
7545;SDS011;3814;51.454;12.616;2023-02-28T01:05:54;6.63;;;2.40;;
7545;SDS011;3814;51.454;12.616;2023-02-28T01:08:19;5.70;;;2.15;;
7545;SDS011;3814;51.454;12.616;2023-02-28T01:10:45;5.63;;;2.38;;
7545;SDS011;3814;51.454;12.616;2023-02-28T01:13:10;6.15;;;2.60;;
7545;SDS011;3814;51.454;12.616;2023-02-28T01:15:37;4.18;;;2.00;;
7545;SDS011;3814;51.454;12.616;2023-02-28T01:18:05;5.82;;;2.20;;
7545;SDS011;3814;51.454;12.616;2023-02-28T01:20:30;6.22;;;2.60;;
7545;SDS011;3814;51.454;12.616;2023-02-28T01:22:55;6.57;;;2.90;;
7545;SDS011;3814;51.454;12.616;2023-02-28T01:25:20;5.97;;;2.28;;
7545;SDS011;3814;51.454;12.616;2023-02-28T01:27:46;5.55;;;2.67;;
7545;SDS011;3814;51.454;12.616;2023-02-28T01:30:11;5.63;;;2.33;;
7545;SDS011;3814;51.454;12.616;2023-02-28T01:32:36;6.00;;;2.63;;
7545;SDS011;3814;51.454;12.616;2023-02-28T01:35:02;6.00;;;3.10;;
7545;SDS011;3814;51.454;12.616;2023-02-28T01:37:27;7.22;;;2.67;;
7545;SDS011;3814;51.454;12.616;2023-02-28T01:39:53;5.30;;;2.15;;
7545;SDS011;3814;51.454;12.616;2023-02-28T01:42:18;5.65;;;2.22;;
7545;SDS011;3814;51.454;12.616;2023-02-28T01:47:31;5.75;;;2.15;;
7545;SDS011;3814;51.454;12.616;2023-02-28T01:50:02;5.90;;;2.53;;
7545;SDS011;3814;51.454;12.616;2023-02-28T01:52:30;7.28;;;2.88;;
7545;SDS011;3814;51.454;12.616;2023-02-28T01:54:56;4.47;;;2.53;;
7545;SDS011;3814;51.454;12.616;2023-02-28T01:57:26;5.50;;;2.78;;
7545;SDS011;3814;51.454;12.616;2023-02-28T01:59:57;4.63;;;2.20;;
7545;SDS011;3814;51.454;12.616;2023-02-28T02:02:24;6.60;;;2.60;;
7545;SDS011;3814;51.454;12.616;2023-02-28T02:04:54;5.63;;;2.35;;
7545;SDS011;3814;51.454;12.616;2023-02-28T02:07:20;5.95;;;2.28;;
7545;SDS011;3814;51.454;12.616;2023-02-28T02:09:46;6.97;;;2.90;;
7545;SDS011;3814;51.454;12.616;2023-02-28T02:12:26;6.45;;;2.55;;
7545;SDS011;3814;51.454;12.616;2023-02-28T02:15:26;6.45;;;2.90;;
7545;SDS011;3814;51.454;12.616;2023-02-28T02:17:52;6.10;;;2.95;;
7545;SDS011;3814;51.454;12.616;2023-02-28T02:20:34;10.82;;;2.97;;
7545;SDS011;3814;51.454;12.616;2023-02-28T02:26:06;7.10;;;3.00;;
7545;SDS011;3814;51.454;12.616;2023-02-28T02:28:57;6.40;;;2.63;;
7545;SDS011;3814;51.454;12.616;2023-02-28T02:34:09;7.45;;;2.90;;
7545;SDS011;3814;51.454;12.616;2023-02-28T02:40:08;5.15;;;2.50;;
7545;SDS011;3814;51.454;12.616;2023-02-28T02:45:28;6.22;;;2.90;;
7545;SDS011;3814;51.454;12.616;2023-02-28T02:48:01;6.68;;;2.53;;
7545;SDS011;3814;51.454;12.616;2023-02-28T02:50:29;6.10;;;2.67;;
7545;SDS011;3814;51.454;12.616;2023-02-28T02:52:58;6.20;;;2.78;;
7545;SDS011;3814;51.454;12.616;2023-02-28T02:55:26;7.53;;;3.10;;
7545;SDS011;3814;51.454;12.616;2023-02-28T02:58:02;7.20;;;2.95;;
7545;SDS011;3814;51.454;12.616;2023-02-28T03:00:39;7.85;;;2.97;;
7545;SDS011;3814;51.454;12.616;2023-02-28T03:03:08;5.40;;;2.58;;
7545;SDS011;3814;51.454;12.616;2023-02-28T03:05:48;6.57;;;2.85;;
7545;SDS011;3814;51.454;12.616;2023-02-28T03:08:15;7.43;;;2.85;;
7545;SDS011;3814;51.454;12.616;2023-02-28T03:10:41;9.15;;;3.00;;
7545;SDS011;3814;51.454;12.616;2023-02-28T03:13:11;4.97;;;2.53;;
7545;SDS011;3814;51.454;12.616;2023-02-28T03:18:32;4.30;;;2.15;;
7545;SDS011;3814;51.454;12.616;2023-02-28T03:21:33;7.05;;;2.45;;
7545;SDS011;3814;51.454;12.616;2023-02-28T03:24:18;6.25;;;2.90;;
7545;SDS011;3814;51.454;12.616;2023-02-28T03:26:50;5.13;;;2.88;;
7545;SDS011;3814;51.454;12.616;2023-02-28T03:29:28;7.57;;;2.80;;
7545;SDS011;3814;51.454;12.616;2023-02-28T03:31:59;7.15;;;2.80;;
7545;SDS011;3814;51.454;12.616;2023-02-28T03:34:39;5.18;;;2.35;;
7545;SDS011;3814;51.454;12.616;2023-02-28T03:37:08;7.03;;;2.72;;
7545;SDS011;3814;51.454;12.616;2023-02-28T03:39:37;6.28;;;2.80;;
7545;SDS011;3814;51.454;12.616;2023-02-28T03:44:49;4.68;;;2.42;;
7545;SDS011;3814;51.454;12.616;2023-02-28T03:47:17;6.90;;;3.00;;
7545;SDS011;3814;51.454;12.616;2023-02-28T03:49:58;6.85;;;3.10;;
7545;SDS011;3814;51.454;12.616;2023-02-28T03:52:27;8.90;;;3.40;;
7545;SDS011;3814;51.454;12.616;2023-02-28T03:54:54;6.90;;;3.05;;
7545;SDS011;3814;51.454;12.616;2023-02-28T03:57:32;6.07;;;2.95;;
7545;SDS011;3814;51.454;12.616;2023-02-28T04:00:18;8.52;;;3.33;;
7545;SDS011;3814;51.454;12.616;2023-02-28T04:02:45;9.23;;;3.33;;
7545;SDS011;3814;51.454;12.616;2023-02-28T04:05:10;8.98;;;3.50;;
7545;SDS011;3814;51.454;12.616;2023-02-28T04:07:36;8.50;;;3.35;;
7545;SDS011;3814;51.454;12.616;2023-02-28T04:10:02;7.97;;;3.70;;
7545;SDS011;3814;51.454;12.616;2023-02-28T04:12:28;7.93;;;3.30;;
7545;SDS011;3814;51.454;12.616;2023-02-28T04:14:53;6.70;;;3.08;;
7545;SDS011;3814;51.454;12.616;2023-02-28T04:17:19;6.95;;;3.30;;
7545;SDS011;3814;51.454;12.616;2023-02-28T04:19:44;8.13;;;3.15;;
7545;SDS011;3814;51.454;12.616;2023-02-28T04:22:09;6.85;;;2.92;;
7545;SDS011;3814;51.454;12.616;2023-02-28T04:24:35;7.45;;;3.03;;
7545;SDS011;3814;51.454;12.616;2023-02-28T04:27:00;7.97;;;3.40;;
7545;SDS011;3814;51.454;12.616;2023-02-28T04:29:32;7.07;;;3.25;;
7545;SDS011;3814;51.454;12.616;2023-02-28T04:31:57;7.85;;;3.20;;
7545;SDS011;3814;51.454;12.616;2023-02-28T04:34:24;7.93;;;3.60;;
7545;SDS011;3814;51.454;12.616;2023-02-28T04:36:50;8.68;;;3.55;;
7545;SDS011;3814;51.454;12.616;2023-02-28T04:39:18;8.02;;;3.65;;
7545;SDS011;3814;51.454;12.616;2023-02-28T04:41:44;8.60;;;3.53;;
7545;SDS011;3814;51.454;12.616;2023-02-28T04:44:10;7.80;;;3.70;;
7545;SDS011;3814;51.454;12.616;2023-02-28T04:46:35;9.45;;;3.35;;
7545;SDS011;3814;51.454;12.616;2023-02-28T04:49:00;8.73;;;3.50;;
7545;SDS011;3814;51.454;12.616;2023-02-28T04:51:25;10.13;;;3.60;;
7545;SDS011;3814;51.454;12.616;2023-02-28T04:53:51;8.93;;;4.03;;
7545;SDS011;3814;51.454;12.616;2023-02-28T04:56:17;10.48;;;4.88;;
7545;SDS011;3814;51.454;12.616;2023-02-28T04:58:43;15.98;;;5.30;;
7545;SDS011;3814;51.454;12.616;2023-02-28T05:01:18;9.48;;;4.55;;
7545;SDS011;3814;51.454;12.616;2023-02-28T05:03:52;9.10;;;3.78;;
7545;SDS011;3814;51.454;12.616;2023-02-28T05:06:18;9.20;;;4.53;;
7545;SDS011;3814;51.454;12.616;2023-02-28T05:08:45;9.35;;;4.68;;
7545;SDS011;3814;51.454;12.616;2023-02-28T05:11:18;7.90;;;3.92;;
7545;SDS011;3814;51.454;12.616;2023-02-28T05:13:45;12.30;;;3.70;;
7545;SDS011;3814;51.454;12.616;2023-02-28T05:16:11;9.27;;;3.65;;
7545;SDS011;3814;51.454;12.616;2023-02-28T05:18:37;10.82;;;3.80;;
7545;SDS011;3814;51.454;12.616;2023-02-28T05:21:02;11.35;;;4.60;;
7545;SDS011;3814;51.454;12.616;2023-02-28T05:23:28;12.32;;;4.65;;
7545;SDS011;3814;51.454;12.616;2023-02-28T05:25:53;11.80;;;4.60;;
7545;SDS011;3814;51.454;12.616;2023-02-28T05:28:19;11.90;;;4.45;;
7545;SDS011;3814;51.454;12.616;2023-02-28T05:30:45;9.25;;;4.13;;
7545;SDS011;3814;51.454;12.616;2023-02-28T05:33:10;9.35;;;4.10;;
7545;SDS011;3814;51.454;12.616;2023-02-28T05:35:37;8.13;;;3.60;;
7545;SDS011;3814;51.454;12.616;2023-02-28T05:38:03;10.57;;;4.18;;
7545;SDS011;3814;51.454;12.616;2023-02-28T05:40:28;8.23;;;3.33;;
7545;SDS011;3814;51.454;12.616;2023-02-28T05:42:54;9.25;;;4.18;;
7545;SDS011;3814;51.454;12.616;2023-02-28T05:45:19;12.30;;;4.30;;
7545;SDS011;3814;51.454;12.616;2023-02-28T05:47:44;10.02;;;3.97;;
7545;SDS011;3814;51.454;12.616;2023-02-28T05:50:10;10.65;;;4.07;;
7545;SDS011;3814;51.454;12.616;2023-02-28T05:52:36;9.48;;;4.20;;
7545;SDS011;3814;51.454;12.616;2023-02-28T05:55:01;9.20;;;3.75;;
7545;SDS011;3814;51.454;12.616;2023-02-28T05:57:27;11.05;;;4.28;;
7545;SDS011;3814;51.454;12.616;2023-02-28T05:59:52;10.15;;;4.30;;
7545;SDS011;3814;51.454;12.616;2023-02-28T06:02:18;12.13;;;4.38;;
7545;SDS011;3814;51.454;12.616;2023-02-28T06:04:43;13.45;;;5.63;;
7545;SDS011;3814;51.454;12.616;2023-02-28T06:07:09;10.68;;;5.05;;
7545;SDS011;3814;51.454;12.616;2023-02-28T06:09:35;16.38;;;5.85;;
7545;SDS011;3814;51.454;12.616;2023-02-28T06:12:01;18.00;;;6.35;;
7545;SDS011;3814;51.454;12.616;2023-02-28T06:14:30;20.52;;;6.13;;
7545;SDS011;3814;51.454;12.616;2023-02-28T06:16:56;21.38;;;7.47;;
7545;SDS011;3814;51.454;12.616;2023-02-28T06:19:22;20.05;;;6.38;;
7545;SDS011;3814;51.454;12.616;2023-02-28T06:21:50;18.40;;;5.72;;
7545;SDS011;3814;51.454;12.616;2023-02-28T06:24:17;15.93;;;5.45;;
7545;SDS011;3814;51.454;12.616;2023-02-28T06:26:42;17.35;;;5.65;;
7545;SDS011;3814;51.454;12.616;2023-02-28T06:29:08;14.30;;;5.70;;
7545;SDS011;3814;51.454;12.616;2023-02-28T06:31:33;13.13;;;5.53;;
7545;SDS011;3814;51.454;12.616;2023-02-28T06:33:58;15.43;;;5.80;;
7545;SDS011;3814;51.454;12.616;2023-02-28T06:36:24;15.40;;;6.07;;
7545;SDS011;3814;51.454;12.616;2023-02-28T06:38:49;16.55;;;5.75;;
7545;SDS011;3814;51.454;12.616;2023-02-28T06:41:19;16.77;;;6.20;;
7545;SDS011;3814;51.454;12.616;2023-02-28T06:43:45;21.98;;;6.95;;
7545;SDS011;3814;51.454;12.616;2023-02-28T06:46:11;20.80;;;6.72;;
7545;SDS011;3814;51.454;12.616;2023-02-28T06:48:38;21.48;;;8.60;;
7545;SDS011;3814;51.454;12.616;2023-02-28T06:51:08;20.10;;;7.55;;
7545;SDS011;3814;51.454;12.616;2023-02-28T06:53:35;24.38;;;7.72;;
7545;SDS011;3814;51.454;12.616;2023-02-28T06:56:08;26.42;;;8.38;;
7545;SDS011;3814;51.454;12.616;2023-02-28T06:58:34;28.10;;;8.82;;
7545;SDS011;3814;51.454;12.616;2023-02-28T07:01:00;21.25;;;8.52;;
7545;SDS011;3814;51.454;12.616;2023-02-28T07:03:26;21.45;;;6.38;;
7545;SDS011;3814;51.454;12.616;2023-02-28T07:05:51;16.00;;;5.97;;
7545;SDS011;3814;51.454;12.616;2023-02-28T07:08:17;17.67;;;7.07;;
7545;SDS011;3814;51.454;12.616;2023-02-28T07:10:42;17.17;;;7.47;;
7545;SDS011;3814;51.454;12.616;2023-02-28T07:13:08;24.15;;;7.88;;
7545;SDS011;3814;51.454;12.616;2023-02-28T07:15:34;22.05;;;8.20;;
7545;SDS011;3814;51.454;12.616;2023-02-28T07:17:59;23.00;;;7.47;;
7545;SDS011;3814;51.454;12.616;2023-02-28T07:20:25;21.40;;;6.72;;
7545;SDS011;3814;51.454;12.616;2023-02-28T07:22:50;24.65;;;6.43;;
7545;SDS011;3814;51.454;12.616;2023-02-28T07:25:20;14.85;;;5.90;;
7545;SDS011;3814;51.454;12.616;2023-02-28T07:27:45;15.00;;;5.72;;
7545;SDS011;3814;51.454;12.616;2023-02-28T07:30:11;13.45;;;5.40;;
7545;SDS011;3814;51.454;12.616;2023-02-28T07:32:37;12.27;;;4.57;;
7545;SDS011;3814;51.454;12.616;2023-02-28T07:35:02;12.52;;;4.50;;
7545;SDS011;3814;51.454;12.616;2023-02-28T07:37:28;10.50;;;4.13;;
7545;SDS011;3814;51.454;12.616;2023-02-28T07:39:56;10.68;;;4.28;;
7545;SDS011;3814;51.454;12.616;2023-02-28T07:42:21;12.27;;;3.97;;
7545;SDS011;3814;51.454;12.616;2023-02-28T07:44:46;8.43;;;3.83;;
7545;SDS011;3814;51.454;12.616;2023-02-28T07:47:12;12.73;;;4.00;;
7545;SDS011;3814;51.454;12.616;2023-02-28T07:49:37;12.93;;;3.80;;
7545;SDS011;3814;51.454;12.616;2023-02-28T07:52:06;8.85;;;3.28;;
7545;SDS011;3814;51.454;12.616;2023-02-28T07:54:31;8.68;;;3.90;;
7545;SDS011;3814;51.454;12.616;2023-02-28T07:56:57;8.45;;;3.75;;
7545;SDS011;3814;51.454;12.616;2023-02-28T07:59:22;9.60;;;3.85;;
7545;SDS011;3814;51.454;12.616;2023-02-28T08:01:48;10.50;;;4.00;;
7545;SDS011;3814;51.454;12.616;2023-02-28T08:04:15;8.90;;;4.10;;
7545;SDS011;3814;51.454;12.616;2023-02-28T08:06:43;9.57;;;3.70;;
7545;SDS011;3814;51.454;12.616;2023-02-28T08:09:08;12.70;;;4.35;;
7545;SDS011;3814;51.454;12.616;2023-02-28T08:11:34;8.32;;;4.03;;
7545;SDS011;3814;51.454;12.616;2023-02-28T08:13:59;7.57;;;3.40;;
7545;SDS011;3814;51.454;12.616;2023-02-28T08:16:25;7.70;;;3.40;;
7545;SDS011;3814;51.454;12.616;2023-02-28T08:18:51;8.10;;;3.30;;
7545;SDS011;3814;51.454;12.616;2023-02-28T08:21:17;9.18;;;3.50;;
7545;SDS011;3814;51.454;12.616;2023-02-28T08:23:42;7.13;;;3.13;;
7545;SDS011;3814;51.454;12.616;2023-02-28T08:26:08;8.70;;;3.25;;
7545;SDS011;3814;51.454;12.616;2023-02-28T08:28:33;7.10;;;3.08;;
7545;SDS011;3814;51.454;12.616;2023-02-28T08:30:58;8.65;;;3.33;;
7545;SDS011;3814;51.454;12.616;2023-02-28T08:33:24;7.55;;;3.45;;
7545;SDS011;3814;51.454;12.616;2023-02-28T08:35:52;7.20;;;3.05;;
7545;SDS011;3814;51.454;12.616;2023-02-28T08:38:20;9.45;;;3.53;;
7545;SDS011;3814;51.454;12.616;2023-02-28T08:40:46;6.63;;;3.35;;
7545;SDS011;3814;51.454;12.616;2023-02-28T08:43:11;7.63;;;3.40;;
7545;SDS011;3814;51.454;12.616;2023-02-28T08:45:37;8.57;;;3.20;;
7545;SDS011;3814;51.454;12.616;2023-02-28T08:48:02;6.18;;;3.20;;
7545;SDS011;3814;51.454;12.616;2023-02-28T08:50:28;7.25;;;3.45;;
7545;SDS011;3814;51.454;12.616;2023-02-28T08:52:53;6.97;;;3.20;;
7545;SDS011;3814;51.454;12.616;2023-02-28T08:55:18;6.82;;;3.40;;
7545;SDS011;3814;51.454;12.616;2023-02-28T08:57:44;8.05;;;3.00;;
7545;SDS011;3814;51.454;12.616;2023-02-28T09:00:09;6.57;;;3.42;;
7545;SDS011;3814;51.454;12.616;2023-02-28T09:02:36;6.38;;;3.30;;
7545;SDS011;3814;51.454;12.616;2023-02-28T09:05:02;7.68;;;3.10;;
7545;SDS011;3814;51.454;12.616;2023-02-28T09:07:27;7.00;;;3.30;;
7545;SDS011;3814;51.454;12.616;2023-02-28T09:09:53;6.65;;;3.20;;
7545;SDS011;3814;51.454;12.616;2023-02-28T09:12:19;7.07;;;3.53;;
7545;SDS011;3814;51.454;12.616;2023-02-28T09:14:48;5.95;;;3.13;;
7545;SDS011;3814;51.454;12.616;2023-02-28T09:17:13;6.25;;;3.30;;
7545;SDS011;3814;51.454;12.616;2023-02-28T09:19:38;5.63;;;3.10;;
7545;SDS011;3814;51.454;12.616;2023-02-28T09:22:04;5.30;;;3.00;;
7545;SDS011;3814;51.454;12.616;2023-02-28T09:24:29;7.13;;;3.53;;
7545;SDS011;3814;51.454;12.616;2023-02-28T09:26:56;7.90;;;3.50;;
7545;SDS011;3814;51.454;12.616;2023-02-28T09:29:21;6.75;;;2.95;;
7545;SDS011;3814;51.454;12.616;2023-02-28T09:31:47;6.18;;;3.40;;
7545;SDS011;3814;51.454;12.616;2023-02-28T09:34:12;6.05;;;3.15;;
7545;SDS011;3814;51.454;12.616;2023-02-28T09:36:37;7.70;;;3.20;;
7545;SDS011;3814;51.454;12.616;2023-02-28T09:39:03;8.93;;;3.00;;
7545;SDS011;3814;51.454;12.616;2023-02-28T09:41:29;7.60;;;3.20;;
7545;SDS011;3814;51.454;12.616;2023-02-28T09:44:02;7.65;;;3.35;;
7545;SDS011;3814;51.454;12.616;2023-02-28T09:46:39;6.50;;;3.50;;
7545;SDS011;3814;51.454;12.616;2023-02-28T09:49:06;5.80;;;3.00;;
7545;SDS011;3814;51.454;12.616;2023-02-28T09:51:36;11.02;;;5.10;;
7545;SDS011;3814;51.454;12.616;2023-02-28T09:54:13;8.27;;;3.67;;
7545;SDS011;3814;51.454;12.616;2023-02-28T09:56:44;4.40;;;2.30;;
7545;SDS011;3814;51.454;12.616;2023-02-28T09:59:14;6.57;;;2.97;;
7545;SDS011;3814;51.454;12.616;2023-02-28T10:04:42;6.15;;;3.20;;
7545;SDS011;3814;51.454;12.616;2023-02-28T10:10:20;5.97;;;2.92;;
7545;SDS011;3814;51.454;12.616;2023-02-28T10:12:48;7.40;;;3.15;;
7545;SDS011;3814;51.454;12.616;2023-02-28T10:15:14;6.38;;;2.80;;
7545;SDS011;3814;51.454;12.616;2023-02-28T10:17:41;6.38;;;3.17;;
7545;SDS011;3814;51.454;12.616;2023-02-28T10:22:41;7.50;;;3.60;;
7545;SDS011;3814;51.454;12.616;2023-02-28T10:25:19;6.82;;;2.80;;
7545;SDS011;3814;51.454;12.616;2023-02-28T10:27:59;6.05;;;3.38;;
7545;SDS011;3814;51.454;12.616;2023-02-28T10:30:29;6.47;;;2.90;;
7545;SDS011;3814;51.454;12.616;2023-02-28T10:32:54;6.28;;;3.20;;
7545;SDS011;3814;51.454;12.616;2023-02-28T10:35:21;8.15;;;3.70;;
7545;SDS011;3814;51.454;12.616;2023-02-28T10:37:49;7.13;;;3.30;;
7545;SDS011;3814;51.454;12.616;2023-02-28T10:43:00;6.20;;;3.10;;
7545;SDS011;3814;51.454;12.616;2023-02-28T10:45:31;9.27;;;3.30;;
7545;SDS011;3814;51.454;12.616;2023-02-28T10:48:04;6.25;;;3.10;;
7545;SDS011;3814;51.454;12.616;2023-02-28T10:50:43;6.55;;;3.38;;
7545;SDS011;3814;51.454;12.616;2023-02-28T11:03:55;6.05;;;3.25;;
7545;SDS011;3814;51.454;12.616;2023-02-28T11:06:23;6.80;;;3.70;;
7545;SDS011;3814;51.454;12.616;2023-02-28T11:11:17;6.93;;;3.35;;
7545;SDS011;3814;51.454;12.616;2023-02-28T11:13:44;6.95;;;3.35;;
7545;SDS011;3814;51.454;12.616;2023-02-28T11:16:11;6.97;;;3.72;;
7545;SDS011;3814;51.454;12.616;2023-02-28T11:18:50;9.60;;;4.55;;
7545;SDS011;3814;51.454;12.616;2023-02-28T11:21:26;8.82;;;4.20;;
7545;SDS011;3814;51.454;12.616;2023-02-28T11:23:56;8.98;;;4.35;;
7545;SDS011;3814;51.454;12.616;2023-02-28T11:26:43;8.75;;;4.43;;
7545;SDS011;3814;51.454;12.616;2023-02-28T11:29:17;8.88;;;4.47;;
7545;SDS011;3814;51.454;12.616;2023-02-28T11:32:01;9.88;;;4.53;;
7545;SDS011;3814;51.454;12.616;2023-02-28T11:34:27;9.82;;;4.45;;
7545;SDS011;3814;51.454;12.616;2023-02-28T11:36:53;10.20;;;4.95;;
7545;SDS011;3814;51.454;12.616;2023-02-28T11:39:20;10.10;;;4.35;;
7545;SDS011;3814;51.454;12.616;2023-02-28T11:42:07;10.10;;;5.05;;
7545;SDS011;3814;51.454;12.616;2023-02-28T11:44:54;10.80;;;5.00;;
7545;SDS011;3814;51.454;12.616;2023-02-28T11:50:00;9.80;;;4.63;;
7545;SDS011;3814;51.454;12.616;2023-02-28T11:52:56;12.13;;;4.57;;
7545;SDS011;3814;51.454;12.616;2023-02-28T11:58:00;11.15;;;5.10;;
7545;SDS011;3814;51.454;12.616;2023-02-28T12:00:54;12.35;;;4.57;;
7545;SDS011;3814;51.454;12.616;2023-02-28T12:06:42;9.93;;;4.57;;
7545;SDS011;3814;51.454;12.616;2023-02-28T12:11:55;10.88;;;4.50;;
7545;SDS011;3814;51.454;12.616;2023-02-28T12:14:31;10.55;;;4.75;;
7545;SDS011;3814;51.454;12.616;2023-02-28T12:17:05;8.85;;;4.50;;
7545;SDS011;3814;51.454;12.616;2023-02-28T12:19:42;9.35;;;4.65;;
7545;SDS011;3814;51.454;12.616;2023-02-28T12:22:30;9.98;;;4.30;;
7545;SDS011;3814;51.454;12.616;2023-02-28T12:25:33;11.52;;;4.97;;
7545;SDS011;3814;51.454;12.616;2023-02-28T12:28:06;10.77;;;4.78;;
7545;SDS011;3814;51.454;12.616;2023-02-28T12:30:35;9.82;;;4.63;;
7545;SDS011;3814;51.454;12.616;2023-02-28T12:33:03;10.10;;;4.60;;
7545;SDS011;3814;51.454;12.616;2023-02-28T12:35:33;9.60;;;4.50;;
7545;SDS011;3814;51.454;12.616;2023-02-28T12:38:18;10.52;;;4.82;;
7545;SDS011;3814;51.454;12.616;2023-02-28T12:41:47;11.40;;;4.82;;
7545;SDS011;3814;51.454;12.616;2023-02-28T12:43:51;10.73;;;5.15;;
7545;SDS011;3814;51.454;12.616;2023-02-28T12:46:24;11.25;;;5.68;;
7545;SDS011;3814;51.454;12.616;2023-02-28T12:49:12;9.43;;;4.53;;
7545;SDS011;3814;51.454;12.616;2023-02-28T12:51:39;11.40;;;5.00;;
7545;SDS011;3814;51.454;12.616;2023-02-28T12:54:25;16.15;;;5.45;;
7545;SDS011;3814;51.454;12.616;2023-02-28T12:57:02;11.15;;;4.43;;
7545;SDS011;3814;51.454;12.616;2023-02-28T13:09:57;8.48;;;4.38;;
7545;SDS011;3814;51.454;12.616;2023-02-28T13:12:24;9.02;;;4.88;;
7545;SDS011;3814;51.454;12.616;2023-02-28T13:14:51;10.18;;;4.70;;
7545;SDS011;3814;51.454;12.616;2023-02-28T13:17:30;13.07;;;5.05;;
7545;SDS011;3814;51.454;12.616;2023-02-28T13:19:58;10.10;;;4.20;;
7545;SDS011;3814;51.454;12.616;2023-02-28T13:24:50;8.20;;;4.57;;
7545;SDS011;3814;51.454;12.616;2023-02-28T13:27:32;11.10;;;5.28;;
7545;SDS011;3814;51.454;12.616;2023-02-28T13:33:21;9.63;;;4.50;;
7545;SDS011;3814;51.454;12.616;2023-02-28T13:38:43;10.32;;;5.18;;
7545;SDS011;3814;51.454;12.616;2023-02-28T13:43:58;13.07;;;5.45;;
7545;SDS011;3814;51.454;12.616;2023-02-28T13:46:27;12.88;;;5.55;;
7545;SDS011;3814;51.454;12.616;2023-02-28T13:48:53;12.43;;;5.40;;
7545;SDS011;3814;51.454;12.616;2023-02-28T13:51:28;11.05;;;5.65;;
7545;SDS011;3814;51.454;12.616;2023-02-28T13:57:05;11.05;;;5.63;;
7545;SDS011;3814;51.454;12.616;2023-02-28T13:59:50;11.05;;;5.40;;
7545;SDS011;3814;51.454;12.616;2023-02-28T14:05:06;11.25;;;5.35;;
7545;SDS011;3814;51.454;12.616;2023-02-28T14:07:39;9.48;;;5.15;;
7545;SDS011;3814;51.454;12.616;2023-02-28T14:10:30;12.75;;;4.75;;
7545;SDS011;3814;51.454;12.616;2023-02-28T14:12:59;10.65;;;5.03;;
7545;SDS011;3814;51.454;12.616;2023-02-28T14:17:52;12.70;;;5.47;;
7545;SDS011;3814;51.454;12.616;2023-02-28T14:20:20;11.65;;;5.68;;
7545;SDS011;3814;51.454;12.616;2023-02-28T14:28:04;11.57;;;5.50;;
7545;SDS011;3814;51.454;12.616;2023-02-28T14:30:40;10.57;;;5.15;;
7545;SDS011;3814;51.454;12.616;2023-02-28T14:33:26;11.45;;;5.70;;
7545;SDS011;3814;51.454;12.616;2023-02-28T14:36:06;12.05;;;5.53;;
7545;SDS011;3814;51.454;12.616;2023-02-28T14:38:47;14.23;;;5.68;;
7545;SDS011;3814;51.454;12.616;2023-02-28T14:41:23;10.75;;;5.45;;
7545;SDS011;3814;51.454;12.616;2023-02-28T14:43:56;12.13;;;5.72;;
7545;SDS011;3814;51.454;12.616;2023-02-28T14:46:23;12.60;;;5.75;;
7545;SDS011;3814;51.454;12.616;2023-02-28T14:49:00;11.50;;;5.85;;
7545;SDS011;3814;51.454;12.616;2023-02-28T14:51:26;12.70;;;5.50;;
7545;SDS011;3814;51.454;12.616;2023-02-28T14:53:52;13.70;;;5.90;;
7545;SDS011;3814;51.454;12.616;2023-02-28T14:56:26;11.02;;;5.65;;
7545;SDS011;3814;51.454;12.616;2023-02-28T14:59:02;10.93;;;5.57;;
7545;SDS011;3814;51.454;12.616;2023-02-28T15:01:28;11.73;;;4.95;;
7545;SDS011;3814;51.454;12.616;2023-02-28T15:04:04;12.27;;;5.20;;
7545;SDS011;3814;51.454;12.616;2023-02-28T15:06:31;11.30;;;5.43;;
7545;SDS011;3814;51.454;12.616;2023-02-28T15:09:08;9.68;;;4.47;;
7545;SDS011;3814;51.454;12.616;2023-02-28T15:11:36;11.75;;;5.45;;
7545;SDS011;3814;51.454;12.616;2023-02-28T15:14:02;13.15;;;5.35;;
7545;SDS011;3814;51.454;12.616;2023-02-28T15:16:30;11.50;;;5.53;;
7545;SDS011;3814;51.454;12.616;2023-02-28T15:18:59;12.43;;;4.85;;
7545;SDS011;3814;51.454;12.616;2023-02-28T15:21:27;14.02;;;5.43;;
7545;SDS011;3814;51.454;12.616;2023-02-28T15:23:57;11.93;;;5.43;;
7545;SDS011;3814;51.454;12.616;2023-02-28T15:26:34;12.32;;;5.63;;
7545;SDS011;3814;51.454;12.616;2023-02-28T15:29:10;11.40;;;5.15;;
7545;SDS011;3814;51.454;12.616;2023-02-28T15:31:45;12.30;;;5.47;;
7545;SDS011;3814;51.454;12.616;2023-02-28T15:34:18;11.95;;;5.28;;
7545;SDS011;3814;51.454;12.616;2023-02-28T15:36:45;13.95;;;5.70;;
7545;SDS011;3814;51.454;12.616;2023-02-28T15:39:43;12.55;;;5.30;;
7545;SDS011;3814;51.454;12.616;2023-02-28T15:42:11;11.40;;;5.47;;
7545;SDS011;3814;51.454;12.616;2023-02-28T15:44:37;12.23;;;5.68;;
7545;SDS011;3814;51.454;12.616;2023-02-28T15:47:06;14.85;;;5.88;;
7545;SDS011;3814;51.454;12.616;2023-02-28T15:49:40;14.40;;;5.30;;
7545;SDS011;3814;51.454;12.616;2023-02-28T15:52:12;11.88;;;5.70;;
7545;SDS011;3814;51.454;12.616;2023-02-28T15:54:40;11.25;;;4.88;;
7545;SDS011;3814;51.454;12.616;2023-02-28T15:57:07;13.23;;;5.57;;
7545;SDS011;3814;51.454;12.616;2023-02-28T15:59:39;12.25;;;5.57;;
7545;SDS011;3814;51.454;12.616;2023-02-28T16:07:33;11.15;;;5.00;;
7545;SDS011;3814;51.454;12.616;2023-02-28T16:09:59;11.40;;;5.20;;
7545;SDS011;3814;51.454;12.616;2023-02-28T16:12:26;12.82;;;5.55;;
7545;SDS011;3814;51.454;12.616;2023-02-28T16:14:53;12.80;;;5.53;;
7545;SDS011;3814;51.454;12.616;2023-02-28T16:17:20;12.25;;;5.10;;
7545;SDS011;3814;51.454;12.616;2023-02-28T16:19:47;11.60;;;5.13;;
7545;SDS011;3814;51.454;12.616;2023-02-28T16:22:12;10.07;;;5.25;;
7545;SDS011;3814;51.454;12.616;2023-02-28T16:24:37;11.57;;;5.10;;
7545;SDS011;3814;51.454;12.616;2023-02-28T16:27:04;11.68;;;4.68;;
7545;SDS011;3814;51.454;12.616;2023-02-28T16:29:31;13.18;;;5.50;;
7545;SDS011;3814;51.454;12.616;2023-02-28T16:31:58;14.73;;;5.63;;
7545;SDS011;3814;51.454;12.616;2023-02-28T16:34:24;11.20;;;5.03;;
7545;SDS011;3814;51.454;12.616;2023-02-28T16:36:50;12.50;;;5.47;;
7545;SDS011;3814;51.454;12.616;2023-02-28T16:39:15;14.07;;;5.85;;
7545;SDS011;3814;51.454;12.616;2023-02-28T16:41:44;14.77;;;5.93;;
7545;SDS011;3814;51.454;12.616;2023-02-28T16:46:38;13.65;;;5.82;;